sensor_id;sensor_type;location;lat;lon;timestamp;P1;durP1;ratioP1;P2;durP2;ratioP2
18100;SDS011;9177;49.156;8.142;2022-12-07T00:01:42;3.07;;;2.33;;
18100;SDS011;9177;49.156;8.142;2022-12-07T00:04:11;2.77;;;2.33;;
18100;SDS011;9177;49.156;8.142;2022-12-07T00:06:40;3.03;;;2.23;;
18100;SDS011;9177;49.156;8.142;2022-12-07T00:09:09;7.00;;;2.30;;
18100;SDS011;9177;49.156;8.142;2022-12-07T00:11:42;3.37;;;2.27;;
18100;SDS011;9177;49.156;8.142;2022-12-07T00:14:13;2.90;;;2.30;;
18100;SDS011;9177;49.156;8.142;2022-12-07T00:16:41;2.80;;;2.33;;
18100;SDS011;9177;49.156;8.142;2022-12-07T00:19:08;5.37;;;2.50;;
18100;SDS011;9177;49.156;8.142;2022-12-07T00:21:37;2.37;;;2.07;;
18100;SDS011;9177;49.156;8.142;2022-12-07T00:24:07;2.30;;;2.10;;
18100;SDS011;9177;49.156;8.142;2022-12-07T00:26:36;3.57;;;2.20;;
18100;SDS011;9177;49.156;8.142;2022-12-07T00:29:05;3.43;;;2.33;;
18100;SDS011;9177;49.156;8.142;2022-12-07T00:31:35;3.60;;;2.40;;
18100;SDS011;9177;49.156;8.142;2022-12-07T00:34:09;5.17;;;2.50;;
18100;SDS011;9177;49.156;8.142;2022-12-07T00:36:39;4.20;;;2.27;;
18100;SDS011;9177;49.156;8.142;2022-12-07T00:39:06;3.20;;;2.10;;
18100;SDS011;9177;49.156;8.142;2022-12-07T00:41:33;3.40;;;2.17;;
18100;SDS011;9177;49.156;8.142;2022-12-07T00:44:00;3.33;;;2.30;;
18100;SDS011;9177;49.156;8.142;2022-12-07T00:46:27;2.33;;;2.07;;
18100;SDS011;9177;49.156;8.142;2022-12-07T00:48:55;3.37;;;2.00;;
18100;SDS011;9177;49.156;8.142;2022-12-07T00:51:23;4.17;;;2.50;;
18100;SDS011;9177;49.156;8.142;2022-12-07T00:53:51;2.80;;;1.97;;
18100;SDS011;9177;49.156;8.142;2022-12-07T00:56:19;4.17;;;1.97;;
18100;SDS011;9177;49.156;8.142;2022-12-07T00:58:52;2.97;;;1.80;;
18100;SDS011;9177;49.156;8.142;2022-12-07T01:01:20;2.73;;;1.90;;
18100;SDS011;9177;49.156;8.142;2022-12-07T01:03:48;2.40;;;2.20;;
18100;SDS011;9177;49.156;8.142;2022-12-07T01:06:22;2.57;;;1.60;;
18100;SDS011;9177;49.156;8.142;2022-12-07T01:08:49;2.97;;;1.87;;
18100;SDS011;9177;49.156;8.142;2022-12-07T01:11:18;3.17;;;1.90;;
18100;SDS011;9177;49.156;8.142;2022-12-07T01:13:46;5.07;;;2.07;;
18100;SDS011;9177;49.156;8.142;2022-12-07T01:16:15;3.37;;;2.07;;
18100;SDS011;9177;49.156;8.142;2022-12-07T01:18:45;2.40;;;2.20;;
18100;SDS011;9177;49.156;8.142;2022-12-07T01:21:14;3.40;;;2.30;;
18100;SDS011;9177;49.156;8.142;2022-12-07T01:23:44;3.43;;;1.77;;
18100;SDS011;9177;49.156;8.142;2022-12-07T01:26:12;3.60;;;1.80;;
18100;SDS011;9177;49.156;8.142;2022-12-07T01:28:40;2.60;;;1.90;;
18100;SDS011;9177;49.156;8.142;2022-12-07T01:31:08;1.67;;;1.57;;
18100;SDS011;9177;49.156;8.142;2022-12-07T01:33:37;3.00;;;1.77;;
18100;SDS011;9177;49.156;8.142;2022-12-07T01:36:06;2.73;;;2.10;;
18100;SDS011;9177;49.156;8.142;2022-12-07T01:38:34;2.40;;;2.00;;
18100;SDS011;9177;49.156;8.142;2022-12-07T01:41:02;2.20;;;2.00;;
18100;SDS011;9177;49.156;8.142;2022-12-07T01:43:30;1.53;;;1.43;;
18100;SDS011;9177;49.156;8.142;2022-12-07T01:46:03;2.00;;;1.90;;
18100;SDS011;9177;49.156;8.142;2022-12-07T01:48:31;2.55;;;2.00;;
18100;SDS011;9177;49.156;8.142;2022-12-07T01:51:05;2.27;;;1.90;;
18100;SDS011;9177;49.156;8.142;2022-12-07T01:53:37;2.30;;;1.95;;
18100;SDS011;9177;49.156;8.142;2022-12-07T01:56:09;2.30;;;1.83;;
18100;SDS011;9177;49.156;8.142;2022-12-07T01:58:37;2.97;;;1.80;;
18100;SDS011;9177;49.156;8.142;2022-12-07T02:01:04;2.00;;;1.80;;
18100;SDS011;9177;49.156;8.142;2022-12-07T02:03:32;1.87;;;1.60;;
18100;SDS011;9177;49.156;8.142;2022-12-07T02:06:04;1.73;;;1.63;;
18100;SDS011;9177;49.156;8.142;2022-12-07T02:08:31;2.25;;;1.80;;
18100;SDS011;9177;49.156;8.142;2022-12-07T02:10:59;3.50;;;2.03;;
18100;SDS011;9177;49.156;8.142;2022-12-07T02:13:28;2.03;;;1.80;;
18100;SDS011;9177;49.156;8.142;2022-12-07T02:16:05;2.92;;;1.70;;
18100;SDS011;9177;49.156;8.142;2022-12-07T02:18:45;1.87;;;1.63;;
18100;SDS011;9177;49.156;8.142;2022-12-07T02:21:37;2.23;;;1.90;;
18100;SDS011;9177;49.156;8.142;2022-12-07T02:24:14;2.03;;;1.63;;
18100;SDS011;9177;49.156;8.142;2022-12-07T02:26:53;2.70;;;1.58;;
18100;SDS011;9177;49.156;8.142;2022-12-07T02:29:47;1.67;;;1.58;;
18100;SDS011;9177;49.156;8.142;2022-12-07T02:32:21;2.27;;;1.73;;
18100;SDS011;9177;49.156;8.142;2022-12-07T02:34:54;1.93;;;1.57;;
18100;SDS011;9177;49.156;8.142;2022-12-07T02:37:27;1.93;;;1.80;;
18100;SDS011;9177;49.156;8.142;2022-12-07T02:40:01;2.40;;;1.75;;
18100;SDS011;9177;49.156;8.142;2022-12-07T02:42:35;1.90;;;1.80;;
18100;SDS011;9177;49.156;8.142;2022-12-07T02:45:07;2.53;;;1.77;;
18100;SDS011;9177;49.156;8.142;2022-12-07T02:47:36;1.70;;;1.50;;
18100;SDS011;9177;49.156;8.142;2022-12-07T02:50:04;2.67;;;1.70;;
18100;SDS011;9177;49.156;8.142;2022-12-07T02:52:32;1.60;;;1.50;;
18100;SDS011;9177;49.156;8.142;2022-12-07T02:54:59;2.57;;;1.43;;
18100;SDS011;9177;49.156;8.142;2022-12-07T02:57:29;2.42;;;1.48;;
18100;SDS011;9177;49.156;8.142;2022-12-07T03:00:18;1.73;;;1.63;;
18100;SDS011;9177;49.156;8.142;2022-12-07T03:02:53;2.00;;;1.50;;
18100;SDS011;9177;49.156;8.142;2022-12-07T03:08:43;1.40;;;1.30;;
18100;SDS011;9177;49.156;8.142;2022-12-07T03:11:14;1.93;;;1.73;;
18100;SDS011;9177;49.156;8.142;2022-12-07T03:13:47;1.70;;;1.47;;
18100;SDS011;9177;49.156;8.142;2022-12-07T03:16:19;1.93;;;1.77;;
18100;SDS011;9177;49.156;8.142;2022-12-07T03:18:49;1.90;;;1.70;;
18100;SDS011;9177;49.156;8.142;2022-12-07T03:21:20;1.63;;;1.47;;
18100;SDS011;9177;49.156;8.142;2022-12-07T03:23:50;1.70;;;1.58;;
18100;SDS011;9177;49.156;8.142;2022-12-07T03:26:20;2.20;;;1.63;;
18100;SDS011;9177;49.156;8.142;2022-12-07T03:28:51;2.20;;;1.87;;
18100;SDS011;9177;49.156;8.142;2022-12-07T03:31:23;2.57;;;1.30;;
18100;SDS011;9177;49.156;8.142;2022-12-07T03:33:56;2.20;;;1.73;;
18100;SDS011;9177;49.156;8.142;2022-12-07T03:36:29;1.80;;;1.70;;
18100;SDS011;9177;49.156;8.142;2022-12-07T03:39:01;1.80;;;1.70;;
18100;SDS011;9177;49.156;8.142;2022-12-07T03:41:33;1.73;;;1.60;;
18100;SDS011;9177;49.156;8.142;2022-12-07T03:44:03;1.80;;;1.50;;
18100;SDS011;9177;49.156;8.142;2022-12-07T03:46:34;1.60;;;1.50;;
18100;SDS011;9177;49.156;8.142;2022-12-07T03:49:06;1.88;;;1.65;;
18100;SDS011;9177;49.156;8.142;2022-12-07T03:51:39;2.03;;;1.80;;
18100;SDS011;9177;49.156;8.142;2022-12-07T03:54:13;3.10;;;1.57;;
18100;SDS011;9177;49.156;8.142;2022-12-07T03:56:43;1.70;;;1.60;;
18100;SDS011;9177;49.156;8.142;2022-12-07T03:59:11;2.40;;;1.57;;
18100;SDS011;9177;49.156;8.142;2022-12-07T04:01:42;1.47;;;1.37;;
18100;SDS011;9177;49.156;8.142;2022-12-07T04:04:09;1.80;;;1.40;;
18100;SDS011;9177;49.156;8.142;2022-12-07T04:06:37;1.83;;;1.73;;
18100;SDS011;9177;49.156;8.142;2022-12-07T04:09:03;1.77;;;1.20;;
18100;SDS011;9177;49.156;8.142;2022-12-07T04:11:30;1.60;;;1.50;;
18100;SDS011;9177;49.156;8.142;2022-12-07T04:13:57;1.60;;;1.50;;
18100;SDS011;9177;49.156;8.142;2022-12-07T04:16:43;1.67;;;1.57;;
18100;SDS011;9177;49.156;8.142;2022-12-07T04:19:10;1.50;;;1.40;;
18100;SDS011;9177;49.156;8.142;2022-12-07T04:21:37;1.40;;;1.30;;
18100;SDS011;9177;49.156;8.142;2022-12-07T04:24:04;1.80;;;1.70;;
18100;SDS011;9177;49.156;8.142;2022-12-07T04:26:32;1.57;;;1.47;;
18100;SDS011;9177;49.156;8.142;2022-12-07T04:28:58;1.67;;;1.57;;
18100;SDS011;9177;49.156;8.142;2022-12-07T04:31:25;1.50;;;1.40;;
18100;SDS011;9177;49.156;8.142;2022-12-07T04:33:53;1.88;;;1.40;;
18100;SDS011;9177;49.156;8.142;2022-12-07T04:36:21;1.65;;;1.55;;
18100;SDS011;9177;49.156;8.142;2022-12-07T04:38:48;3.00;;;1.60;;
18100;SDS011;9177;49.156;8.142;2022-12-07T04:41:15;1.60;;;1.50;;
18100;SDS011;9177;49.156;8.142;2022-12-07T04:43:42;1.57;;;1.47;;
18100;SDS011;9177;49.156;8.142;2022-12-07T04:46:09;2.37;;;1.50;;
18100;SDS011;9177;49.156;8.142;2022-12-07T04:48:36;1.90;;;1.50;;
18100;SDS011;9177;49.156;8.142;2022-12-07T04:51:04;1.70;;;1.60;;
18100;SDS011;9177;49.156;8.142;2022-12-07T04:53:31;1.67;;;1.57;;
18100;SDS011;9177;49.156;8.142;2022-12-07T04:55:58;1.53;;;1.43;;
18100;SDS011;9177;49.156;8.142;2022-12-07T04:58:26;1.80;;;1.70;;
18100;SDS011;9177;49.156;8.142;2022-12-07T05:00:53;1.60;;;1.50;;
18100;SDS011;9177;49.156;8.142;2022-12-07T05:03:20;1.50;;;1.40;;
18100;SDS011;9177;49.156;8.142;2022-12-07T05:05:47;1.93;;;1.83;;
18100;SDS011;9177;49.156;8.142;2022-12-07T05:08:15;1.70;;;1.60;;
18100;SDS011;9177;49.156;8.142;2022-12-07T05:10:42;1.60;;;1.50;;
18100;SDS011;9177;49.156;8.142;2022-12-07T05:13:09;1.50;;;1.40;;
18100;SDS011;9177;49.156;8.142;2022-12-07T05:15:36;1.60;;;1.50;;
18100;SDS011;9177;49.156;8.142;2022-12-07T05:18:03;1.80;;;1.70;;
18100;SDS011;9177;49.156;8.142;2022-12-07T05:20:29;2.03;;;1.73;;
18100;SDS011;9177;49.156;8.142;2022-12-07T05:22:57;1.97;;;1.50;;
18100;SDS011;9177;49.156;8.142;2022-12-07T05:25:25;1.90;;;1.80;;
18100;SDS011;9177;49.156;8.142;2022-12-07T05:27:53;2.00;;;1.70;;
18100;SDS011;9177;49.156;8.142;2022-12-07T05:30:21;1.30;;;1.20;;
18100;SDS011;9177;49.156;8.142;2022-12-07T05:32:48;1.80;;;1.50;;
18100;SDS011;9177;49.156;8.142;2022-12-07T05:35:15;1.80;;;1.47;;
18100;SDS011;9177;49.156;8.142;2022-12-07T05:37:42;1.60;;;1.50;;
18100;SDS011;9177;49.156;8.142;2022-12-07T05:40:09;1.80;;;1.70;;
18100;SDS011;9177;49.156;8.142;2022-12-07T05:42:39;1.43;;;1.33;;
18100;SDS011;9177;49.156;8.142;2022-12-07T05:45:10;1.77;;;1.67;;
18100;SDS011;9177;49.156;8.142;2022-12-07T05:47:37;1.87;;;1.60;;
18100;SDS011;9177;49.156;8.142;2022-12-07T05:50:05;1.97;;;1.87;;
18100;SDS011;9177;49.156;8.142;2022-12-07T05:52:32;1.70;;;1.60;;
18100;SDS011;9177;49.156;8.142;2022-12-07T05:54:59;2.43;;;1.70;;
18100;SDS011;9177;49.156;8.142;2022-12-07T05:57:26;1.77;;;1.67;;
18100;SDS011;9177;49.156;8.142;2022-12-07T05:59:54;1.67;;;1.57;;
18100;SDS011;9177;49.156;8.142;2022-12-07T06:02:21;2.40;;;1.57;;
18100;SDS011;9177;49.156;8.142;2022-12-07T06:04:48;2.00;;;1.80;;
18100;SDS011;9177;49.156;8.142;2022-12-07T06:07:15;1.90;;;1.70;;
18100;SDS011;9177;49.156;8.142;2022-12-07T06:09:42;2.30;;;1.67;;
18100;SDS011;9177;49.156;8.142;2022-12-07T06:12:09;2.00;;;1.70;;
18100;SDS011;9177;49.156;8.142;2022-12-07T06:14:57;1.93;;;1.83;;
18100;SDS011;9177;49.156;8.142;2022-12-07T06:17:25;2.33;;;1.80;;
18100;SDS011;9177;49.156;8.142;2022-12-07T06:19:52;1.73;;;1.63;;
18100;SDS011;9177;49.156;8.142;2022-12-07T06:22:19;1.97;;;1.87;;
18100;SDS011;9177;49.156;8.142;2022-12-07T06:24:46;1.80;;;1.70;;
18100;SDS011;9177;49.156;8.142;2022-12-07T06:27:13;2.10;;;1.80;;
18100;SDS011;9177;49.156;8.142;2022-12-07T06:29:40;3.10;;;2.00;;
18100;SDS011;9177;49.156;8.142;2022-12-07T06:32:08;2.40;;;1.97;;
18100;SDS011;9177;49.156;8.142;2022-12-07T06:34:35;2.20;;;1.57;;
18100;SDS011;9177;49.156;8.142;2022-12-07T06:37:02;1.60;;;1.50;;
18100;SDS011;9177;49.156;8.142;2022-12-07T06:39:32;1.70;;;1.60;;
18100;SDS011;9177;49.156;8.142;2022-12-07T06:41:59;1.83;;;1.73;;
18100;SDS011;9177;49.156;8.142;2022-12-07T06:44:25;1.77;;;1.67;;
18100;SDS011;9177;49.156;8.142;2022-12-07T06:46:52;1.67;;;1.57;;
18100;SDS011;9177;49.156;8.142;2022-12-07T06:49:21;2.40;;;1.60;;
18100;SDS011;9177;49.156;8.142;2022-12-07T06:51:48;1.97;;;1.77;;
18100;SDS011;9177;49.156;8.142;2022-12-07T06:54:15;1.70;;;1.50;;
18100;SDS011;9177;49.156;8.142;2022-12-07T06:56:42;1.70;;;1.60;;
18100;SDS011;9177;49.156;8.142;2022-12-07T06:59:09;2.00;;;1.90;;
18100;SDS011;9177;49.156;8.142;2022-12-07T07:01:37;1.60;;;1.40;;
18100;SDS011;9177;49.156;8.142;2022-12-07T07:04:04;1.93;;;1.47;;
18100;SDS011;9177;49.156;8.142;2022-12-07T07:06:32;2.13;;;1.80;;
18100;SDS011;9177;49.156;8.142;2022-12-07T07:09:00;3.27;;;1.70;;
18100;SDS011;9177;49.156;8.142;2022-12-07T07:11:27;3.20;;;1.70;;
18100;SDS011;9177;49.156;8.142;2022-12-07T07:13:54;1.90;;;1.73;;
18100;SDS011;9177;49.156;8.142;2022-12-07T07:16:22;1.57;;;1.47;;
18100;SDS011;9177;49.156;8.142;2022-12-07T07:18:55;2.47;;;1.63;;
18100;SDS011;9177;49.156;8.142;2022-12-07T07:21:22;3.33;;;1.80;;
18100;SDS011;9177;49.156;8.142;2022-12-07T07:23:51;4.00;;;2.10;;
18100;SDS011;9177;49.156;8.142;2022-12-07T07:26:18;1.87;;;1.77;;
18100;SDS011;9177;49.156;8.142;2022-12-07T07:28:44;2.60;;;1.80;;
18100;SDS011;9177;49.156;8.142;2022-12-07T07:31:11;2.07;;;1.83;;
18100;SDS011;9177;49.156;8.142;2022-12-07T07:33:38;4.30;;;2.00;;
18100;SDS011;9177;49.156;8.142;2022-12-07T07:36:05;1.60;;;1.50;;
18100;SDS011;9177;49.156;8.142;2022-12-07T07:38:33;1.83;;;1.70;;
18100;SDS011;9177;49.156;8.142;2022-12-07T07:41:01;3.97;;;2.67;;
18100;SDS011;9177;49.156;8.142;2022-12-07T07:43:29;5.40;;;4.87;;
18100;SDS011;9177;49.156;8.142;2022-12-07T07:45:58;5.40;;;4.53;;
18100;SDS011;9177;49.156;8.142;2022-12-07T07:48:25;5.83;;;5.20;;
18100;SDS011;9177;49.156;8.142;2022-12-07T07:50:52;5.50;;;5.00;;
18100;SDS011;9177;49.156;8.142;2022-12-07T07:53:24;7.40;;;5.37;;
18100;SDS011;9177;49.156;8.142;2022-12-07T07:55:51;5.77;;;5.07;;
18100;SDS011;9177;49.156;8.142;2022-12-07T07:58:20;5.40;;;4.70;;
18100;SDS011;9177;49.156;8.142;2022-12-07T08:00:48;4.97;;;4.30;;
18100;SDS011;9177;49.156;8.142;2022-12-07T08:03:15;5.40;;;4.67;;
18100;SDS011;9177;49.156;8.142;2022-12-07T08:05:42;4.40;;;4.00;;
18100;SDS011;9177;49.156;8.142;2022-12-07T08:08:09;5.97;;;3.90;;
18100;SDS011;9177;49.156;8.142;2022-12-07T08:10:36;4.70;;;4.17;;
18100;SDS011;9177;49.156;8.142;2022-12-07T08:13:03;4.33;;;3.90;;
18100;SDS011;9177;49.156;8.142;2022-12-07T08:15:42;4.57;;;3.70;;
18100;SDS011;9177;49.156;8.142;2022-12-07T08:18:10;5.80;;;4.07;;
18100;SDS011;9177;49.156;8.142;2022-12-07T08:20:38;5.57;;;4.10;;
18100;SDS011;9177;49.156;8.142;2022-12-07T08:23:06;4.28;;;3.80;;
18100;SDS011;9177;49.156;8.142;2022-12-07T08:25:35;4.20;;;3.80;;
18100;SDS011;9177;49.156;8.142;2022-12-07T08:28:02;4.03;;;3.70;;
18100;SDS011;9177;49.156;8.142;2022-12-07T08:30:29;3.70;;;3.40;;
18100;SDS011;9177;49.156;8.142;2022-12-07T08:32:58;4.67;;;3.80;;
18100;SDS011;9177;49.156;8.142;2022-12-07T08:35:25;3.83;;;3.50;;
18100;SDS011;9177;49.156;8.142;2022-12-07T08:37:52;4.27;;;3.33;;
18100;SDS011;9177;49.156;8.142;2022-12-07T08:40:19;3.87;;;3.57;;
18100;SDS011;9177;49.156;8.142;2022-12-07T08:42:48;4.30;;;3.40;;
18100;SDS011;9177;49.156;8.142;2022-12-07T08:45:16;4.53;;;3.63;;
18100;SDS011;9177;49.156;8.142;2022-12-07T08:47:44;4.20;;;3.40;;
18100;SDS011;9177;49.156;8.142;2022-12-07T08:50:16;4.97;;;3.17;;
18100;SDS011;9177;49.156;8.142;2022-12-07T08:52:44;5.07;;;3.20;;
18100;SDS011;9177;49.156;8.142;2022-12-07T08:55:14;4.00;;;2.90;;
18100;SDS011;9177;49.156;8.142;2022-12-07T08:57:41;4.20;;;3.20;;
18100;SDS011;9177;49.156;8.142;2022-12-07T09:00:08;3.30;;;3.00;;
18100;SDS011;9177;49.156;8.142;2022-12-07T09:02:36;3.37;;;3.07;;
18100;SDS011;9177;49.156;8.142;2022-12-07T09:05:03;3.60;;;3.27;;
18100;SDS011;9177;49.156;8.142;2022-12-07T09:07:32;2.83;;;2.63;;
18100;SDS011;9177;49.156;8.142;2022-12-07T09:10:01;3.70;;;3.13;;
18100;SDS011;9177;49.156;8.142;2022-12-07T09:12:29;3.23;;;3.00;;
18100;SDS011;9177;49.156;8.142;2022-12-07T09:14:56;5.07;;;3.20;;
18100;SDS011;9177;49.156;8.142;2022-12-07T09:17:23;4.77;;;3.03;;
18100;SDS011;9177;49.156;8.142;2022-12-07T09:19:50;3.83;;;3.40;;
18100;SDS011;9177;49.156;8.142;2022-12-07T09:22:17;2.97;;;2.77;;
18100;SDS011;9177;49.156;8.142;2022-12-07T09:24:45;3.37;;;3.03;;
18100;SDS011;9177;49.156;8.142;2022-12-07T09:27:12;6.20;;;3.67;;
18100;SDS011;9177;49.156;8.142;2022-12-07T09:29:39;3.20;;;2.73;;
18100;SDS011;9177;49.156;8.142;2022-12-07T09:32:06;5.17;;;3.17;;
18100;SDS011;9177;49.156;8.142;2022-12-07T09:34:33;3.23;;;2.93;;
18100;SDS011;9177;49.156;8.142;2022-12-07T09:37:00;2.83;;;2.50;;
18100;SDS011;9177;49.156;8.142;2022-12-07T09:39:28;3.07;;;2.77;;
18100;SDS011;9177;49.156;8.142;2022-12-07T09:41:56;2.60;;;2.40;;
18100;SDS011;9177;49.156;8.142;2022-12-07T09:44:29;2.67;;;2.47;;
18100;SDS011;9177;49.156;8.142;2022-12-07T09:46:57;3.03;;;2.73;;
18100;SDS011;9177;49.156;8.142;2022-12-07T09:49:25;4.47;;;2.77;;
18100;SDS011;9177;49.156;8.142;2022-12-07T09:52:00;3.00;;;2.73;;
18100;SDS011;9177;49.156;8.142;2022-12-07T09:54:30;2.90;;;2.70;;
18100;SDS011;9177;49.156;8.142;2022-12-07T09:57:01;3.30;;;2.83;;
18100;SDS011;9177;49.156;8.142;2022-12-07T09:59:28;3.03;;;2.43;;
18100;SDS011;9177;49.156;8.142;2022-12-07T10:01:55;4.37;;;2.73;;
18100;SDS011;9177;49.156;8.142;2022-12-07T10:04:42;3.77;;;2.60;;
18100;SDS011;9177;49.156;8.142;2022-12-07T10:07:13;3.83;;;2.83;;
18100;SDS011;9177;49.156;8.142;2022-12-07T10:09:42;3.60;;;3.23;;
18100;SDS011;9177;49.156;8.142;2022-12-07T10:12:11;3.03;;;2.50;;
18100;SDS011;9177;49.156;8.142;2022-12-07T10:14:52;2.87;;;2.40;;
18100;SDS011;9177;49.156;8.142;2022-12-07T10:17:31;2.90;;;2.50;;
18100;SDS011;9177;49.156;8.142;2022-12-07T10:22:56;11.77;;;3.20;;
18100;SDS011;9177;49.156;8.142;2022-12-07T10:25:26;4.47;;;2.63;;
18100;SDS011;9177;49.156;8.142;2022-12-07T10:27:58;8.03;;;3.43;;
18100;SDS011;9177;49.156;8.142;2022-12-07T10:30:27;9.67;;;3.30;;
18100;SDS011;9177;49.156;8.142;2022-12-07T10:32:54;8.50;;;3.43;;
18100;SDS011;9177;49.156;8.142;2022-12-07T10:35:23;6.47;;;3.37;;
18100;SDS011;9177;49.156;8.142;2022-12-07T10:37:53;12.33;;;3.93;;
18100;SDS011;9177;49.156;8.142;2022-12-07T10:40:25;8.47;;;4.17;;
18100;SDS011;9177;49.156;8.142;2022-12-07T10:43:05;11.43;;;3.93;;
18100;SDS011;9177;49.156;8.142;2022-12-07T10:46:04;8.00;;;4.07;;
18100;SDS011;9177;49.156;8.142;2022-12-07T10:48:40;8.67;;;4.60;;
18100;SDS011;9177;49.156;8.142;2022-12-07T10:51:15;7.10;;;4.00;;
18100;SDS011;9177;49.156;8.142;2022-12-07T10:53:57;11.17;;;3.53;;
18100;SDS011;9177;49.156;8.142;2022-12-07T10:56:42;14.83;;;4.20;;
18100;SDS011;9177;49.156;8.142;2022-12-07T10:59:27;10.73;;;3.90;;
18100;SDS011;9177;49.156;8.142;2022-12-07T11:02:14;8.83;;;3.60;;
18100;SDS011;9177;49.156;8.142;2022-12-07T11:04:55;9.33;;;3.50;;
18100;SDS011;9177;49.156;8.142;2022-12-07T11:07:44;7.83;;;3.40;;
18100;SDS011;9177;49.156;8.142;2022-12-07T11:10:19;6.67;;;3.47;;
18100;SDS011;9177;49.156;8.142;2022-12-07T11:13:04;10.13;;;3.23;;
18100;SDS011;9177;49.156;8.142;2022-12-07T11:18:59;9.90;;;3.50;;
18100;SDS011;9177;49.156;8.142;2022-12-07T11:21:43;9.73;;;3.30;;
18100;SDS011;9177;49.156;8.142;2022-12-07T11:24:21;7.47;;;3.43;;
18100;SDS011;9177;49.156;8.142;2022-12-07T11:26:57;5.20;;;3.30;;
18100;SDS011;9177;49.156;8.142;2022-12-07T11:29:45;8.00;;;3.07;;
18100;SDS011;9177;49.156;8.142;2022-12-07T11:32:19;6.63;;;3.03;;
18100;SDS011;9177;49.156;8.142;2022-12-07T11:34:59;6.83;;;3.03;;
18100;SDS011;9177;49.156;8.142;2022-12-07T11:37:38;5.03;;;2.80;;
18100;SDS011;9177;49.156;8.142;2022-12-07T11:40:11;6.67;;;3.10;;
18100;SDS011;9177;49.156;8.142;2022-12-07T11:42:45;5.60;;;2.97;;
18100;SDS011;9177;49.156;8.142;2022-12-07T11:45:19;5.50;;;3.10;;
18100;SDS011;9177;49.156;8.142;2022-12-07T11:47:51;6.53;;;3.17;;
18100;SDS011;9177;49.156;8.142;2022-12-07T11:50:23;4.63;;;2.90;;
18100;SDS011;9177;49.156;8.142;2022-12-07T11:52:55;5.13;;;3.20;;
18100;SDS011;9177;49.156;8.142;2022-12-07T11:55:29;4.13;;;2.73;;
18100;SDS011;9177;49.156;8.142;2022-12-07T11:58:09;4.50;;;2.90;;
18100;SDS011;9177;49.156;8.142;2022-12-07T12:00:47;3.97;;;2.60;;
18100;SDS011;9177;49.156;8.142;2022-12-07T12:03:17;4.00;;;2.70;;
18100;SDS011;9177;49.156;8.142;2022-12-07T12:05:56;6.67;;;3.10;;
18100;SDS011;9177;49.156;8.142;2022-12-07T12:08:24;5.63;;;3.13;;
18100;SDS011;9177;49.156;8.142;2022-12-07T12:10:55;4.53;;;2.70;;
18100;SDS011;9177;49.156;8.142;2022-12-07T12:16:45;4.53;;;2.93;;
18100;SDS011;9177;49.156;8.142;2022-12-07T12:19:34;4.23;;;2.50;;
18100;SDS011;9177;49.156;8.142;2022-12-07T12:22:09;3.77;;;2.27;;
18100;SDS011;9177;49.156;8.142;2022-12-07T12:24:40;8.20;;;2.77;;
18100;SDS011;9177;49.156;8.142;2022-12-07T12:27:10;5.37;;;2.73;;
18100;SDS011;9177;49.156;8.142;2022-12-07T12:29:50;4.43;;;2.70;;
18100;SDS011;9177;49.156;8.142;2022-12-07T12:32:20;6.50;;;2.50;;
18100;SDS011;9177;49.156;8.142;2022-12-07T12:35:00;4.03;;;2.60;;
18100;SDS011;9177;49.156;8.142;2022-12-07T12:37:47;3.30;;;2.23;;
18100;SDS011;9177;49.156;8.142;2022-12-07T12:55:20;5.00;;;2.27;;
18100;SDS011;9177;49.156;8.142;2022-12-07T13:04:13;4.90;;;2.70;;
18100;SDS011;9177;49.156;8.142;2022-12-07T13:07:03;3.20;;;2.23;;
18100;SDS011;9177;49.156;8.142;2022-12-07T13:09:31;2.80;;;2.40;;
18100;SDS011;9177;49.156;8.142;2022-12-07T13:12:03;3.63;;;2.27;;
18100;SDS011;9177;49.156;8.142;2022-12-07T13:20:45;3.23;;;2.20;;
18100;SDS011;9177;49.156;8.142;2022-12-07T13:23:22;2.50;;;2.13;;
18100;SDS011;9177;49.156;8.142;2022-12-07T13:26:16;2.30;;;1.87;;
18100;SDS011;9177;49.156;8.142;2022-12-07T13:28:45;2.73;;;1.93;;
18100;SDS011;9177;49.156;8.142;2022-12-07T13:31:15;2.57;;;2.10;;
18100;SDS011;9177;49.156;8.142;2022-12-07T13:33:50;3.97;;;2.40;;
18100;SDS011;9177;49.156;8.142;2022-12-07T13:36:21;2.70;;;2.07;;
18100;SDS011;9177;49.156;8.142;2022-12-07T13:38:51;2.87;;;2.00;;
18100;SDS011;9177;49.156;8.142;2022-12-07T13:41:20;3.03;;;2.10;;
18100;SDS011;9177;49.156;8.142;2022-12-07T13:43:51;4.43;;;2.33;;
18100;SDS011;9177;49.156;8.142;2022-12-07T13:46:23;1.80;;;1.70;;
18100;SDS011;9177;49.156;8.142;2022-12-07T13:48:53;2.97;;;1.80;;
18100;SDS011;9177;49.156;8.142;2022-12-07T13:51:21;2.90;;;2.10;;
18100;SDS011;9177;49.156;8.142;2022-12-07T13:53:50;3.03;;;2.13;;
18100;SDS011;9177;49.156;8.142;2022-12-07T13:56:21;2.50;;;2.07;;
18100;SDS011;9177;49.156;8.142;2022-12-07T13:58:52;2.73;;;2.07;;
18100;SDS011;9177;49.156;8.142;2022-12-07T14:01:19;3.00;;;2.10;;
18100;SDS011;9177;49.156;8.142;2022-12-07T14:03:47;2.10;;;1.87;;
18100;SDS011;9177;49.156;8.142;2022-12-07T14:06:15;3.37;;;2.10;;
18100;SDS011;9177;49.156;8.142;2022-12-07T14:08:44;2.80;;;2.33;;
18100;SDS011;9177;49.156;8.142;2022-12-07T14:11:13;2.73;;;2.20;;
18100;SDS011;9177;49.156;8.142;2022-12-07T14:13:57;2.73;;;2.00;;
18100;SDS011;9177;49.156;8.142;2022-12-07T14:16:27;2.50;;;1.90;;
18100;SDS011;9177;49.156;8.142;2022-12-07T14:18:55;2.43;;;2.20;;
18100;SDS011;9177;49.156;8.142;2022-12-07T14:21:24;2.47;;;1.83;;
18100;SDS011;9177;49.156;8.142;2022-12-07T14:26:44;2.43;;;2.03;;
18100;SDS011;9177;49.156;8.142;2022-12-07T14:29:21;3.40;;;2.20;;
18100;SDS011;9177;49.156;8.142;2022-12-07T14:31:58;2.80;;;1.80;;
18100;SDS011;9177;49.156;8.142;2022-12-07T14:34:39;2.20;;;1.83;;
18100;SDS011;9177;49.156;8.142;2022-12-07T14:37:07;2.20;;;2.00;;
18100;SDS011;9177;49.156;8.142;2022-12-07T14:39:35;2.83;;;1.90;;
18100;SDS011;9177;49.156;8.142;2022-12-07T14:42:02;2.17;;;1.97;;
18100;SDS011;9177;49.156;8.142;2022-12-07T14:44:31;2.50;;;2.10;;
18100;SDS011;9177;49.156;8.142;2022-12-07T14:46:59;1.90;;;1.80;;
18100;SDS011;9177;49.156;8.142;2022-12-07T14:49:26;1.70;;;1.60;;
18100;SDS011;9177;49.156;8.142;2022-12-07T14:51:53;1.90;;;1.80;;
18100;SDS011;9177;49.156;8.142;2022-12-07T14:54:20;1.90;;;1.80;;
18100;SDS011;9177;49.156;8.142;2022-12-07T14:56:48;3.57;;;2.10;;
18100;SDS011;9177;49.156;8.142;2022-12-07T14:59:16;2.33;;;2.00;;
18100;SDS011;9177;49.156;8.142;2022-12-07T15:01:45;2.83;;;1.97;;
18100;SDS011;9177;49.156;8.142;2022-12-07T15:04:12;2.57;;;2.20;;
18100;SDS011;9177;49.156;8.142;2022-12-07T15:06:39;2.20;;;2.00;;
18100;SDS011;9177;49.156;8.142;2022-12-07T15:09:09;2.93;;;1.93;;
18100;SDS011;9177;49.156;8.142;2022-12-07T15:11:37;2.33;;;1.73;;
18100;SDS011;9177;49.156;8.142;2022-12-07T15:14:04;2.67;;;2.10;;
18100;SDS011;9177;49.156;8.142;2022-12-07T15:16:38;1.97;;;1.70;;
18100;SDS011;9177;49.156;8.142;2022-12-07T15:19:10;2.00;;;1.80;;
18100;SDS011;9177;49.156;8.142;2022-12-07T15:21:40;1.83;;;1.67;;
18100;SDS011;9177;49.156;8.142;2022-12-07T15:24:08;1.87;;;1.67;;
18100;SDS011;9177;49.156;8.142;2022-12-07T15:26:36;2.87;;;2.10;;
18100;SDS011;9177;49.156;8.142;2022-12-07T15:29:03;2.23;;;1.70;;
18100;SDS011;9177;49.156;8.142;2022-12-07T15:31:31;2.00;;;1.80;;
18100;SDS011;9177;49.156;8.142;2022-12-07T15:34:00;2.27;;;1.90;;
18100;SDS011;9177;49.156;8.142;2022-12-07T15:36:29;1.90;;;1.80;;
18100;SDS011;9177;49.156;8.142;2022-12-07T15:38:57;2.03;;;1.83;;
18100;SDS011;9177;49.156;8.142;2022-12-07T15:41:27;2.10;;;1.83;;
18100;SDS011;9177;49.156;8.142;2022-12-07T15:43:54;2.53;;;1.90;;
18100;SDS011;9177;49.156;8.142;2022-12-07T15:46:39;2.40;;;2.13;;
18100;SDS011;9177;49.156;8.142;2022-12-07T15:49:09;2.13;;;1.90;;
18100;SDS011;9177;49.156;8.142;2022-12-07T15:51:39;3.00;;;2.07;;
18100;SDS011;9177;49.156;8.142;2022-12-07T15:54:06;2.00;;;1.80;;
18100;SDS011;9177;49.156;8.142;2022-12-07T15:56:34;1.63;;;1.53;;
18100;SDS011;9177;49.156;8.142;2022-12-07T15:59:02;2.23;;;1.97;;
18100;SDS011;9177;49.156;8.142;2022-12-07T16:01:29;2.40;;;2.00;;
18100;SDS011;9177;49.156;8.142;2022-12-07T16:03:56;2.73;;;1.97;;